W. T. Toutant — WDC6564 — position and weather

sailwx.info

Track history (hours):
 
Tides and Currents Weather Stations Pressure Air Temp Water Temp Dewpoint Dewpoint Depression Visibility Wind Speed Wind Dir Waves Ship Positions

W. T. Toutant

Owner: American Commercial Lines LLC, Jeffersonville, IN. More information available from US FCC via Universal Licensing System and Coast Guard Vessel Documentation Center.

Last reported at 2018-Feb-17 06:38 UTC. Time now 2018-Feb-23 20:17 UTC.
Position N 38°39' W 090°11'.

Length 48 m; draft 3.6 m.

Type: Towing. MMSI: 367057940.

Date/timePositionNaut miles runAvg speedWind from/ knotsBaromVisibWave heightAir tempDewpointWater temp
2018-Feb-17 06:38N 38°39' W 090°11'1 8.1
2018-Feb-17 06:30N 38°40' W 090°11'4 2.1
2018-Feb-17 04:43N 38°44' W 090°10'1 3.2
2018-Feb-17 04:24N 38°44' W 090°09'2 3.1
2018-Feb-17 03:54N 38°46' W 090°08'1 2.8
2018-Feb-17 03:29N 38°47' W 090°08'2 3.8
2018-Feb-17 03:00N 38°48' W 090°07'3 5.6
2018-Feb-17 02:30N 38°51' W 090°07'1 2.3
2018-Feb-17 01:59N 38°52' W 090°08'0 0.0
2018-Feb-17 01:25N 38°52' W 090°08'0 0.0
2018-Feb-17 01:00N 38°52' W 090°08'0 0.0
2018-Feb-17 00:28N 38°52' W 090°08'0 0.0
2018-Feb-16 23:59N 38°52' W 090°08'0 1.0
2018-Feb-16 23:30N 38°52' W 090°09'0 0.2
2018-Feb-16 23:00N 38°52' W 090°09'0 0.2
2018-Feb-16 22:30N 38°52' W 090°09'0 0.0
2018-Feb-16 22:00N 38°52' W 090°09'0 0.3
2018-Feb-16 21:30N 38°52' W 090°09'2 4.2
2018-Feb-16 21:00N 38°53' W 090°12'3 5.3
2018-Feb-16 20:30N 38°55' W 090°14'2 5.0
2018-Feb-16 20:00N 38°55' W 090°17'2 4.9
2018-Feb-16 19:30N 38°56' W 090°20'3 5.4
2018-Feb-16 19:00N 38°58' W 090°23'4 5.2
2018-Feb-16 18:11N 38°58' W 090°29'1 4.9
2018-Feb-16 18:00N 38°58' W 090°30'2 3.9
2018-Feb-16 17:30N 38°58' W 090°32'3 5.1
2018-Feb-16 17:01N 38°60' W 090°34'2 4.8
2018-Feb-16 16:31N 39°02' W 090°35'2 3.8
2018-Feb-16 16:00N 39°04' W 090°35'3 5.0
2018-Feb-16 15:28N 39°07' W 090°36'4 5.0
2018-Feb-16 14:43N 39°10' W 090°37'  
2018-Feb-11 00:01N 39°11' W 090°36'1 3.7
2018-Feb-10 23:52N 39°11' W 090°36'4 3.8
2018-Feb-10 22:46N 39°07' W 090°36'1 3.7
2018-Feb-10 22:30N 39°06' W 090°36'2 3.9
2018-Feb-10 21:54N 39°04' W 090°35'1 3.1
2018-Feb-10 21:30N 39°02' W 090°35'2 3.7
2018-Feb-10 21:00N 39°01' W 090°35'2 3.8
2018-Feb-10 20:30N 38°59' W 090°34'2 3.7
2018-Feb-10 20:00N 38°57' W 090°32'2 3.5
2018-Feb-10 19:30N 38°58' W 090°30'2 4.0
2018-Feb-10 19:00N 38°58' W 090°27'2 4.2
2018-Feb-10 18:30N 38°58' W 090°25'2 4.4
2018-Feb-10 18:00N 38°57' W 090°22'2 4.8
2018-Feb-10 17:29N 38°56' W 090°19'3 5.6
2018-Feb-10 17:00N 38°55' W 090°16'2 4.9
2018-Feb-10 16:30N 38°54' W 090°13'2 4.2
2018-Feb-10 16:00N 38°53' W 090°11'2 3.3
2018-Feb-10 15:30N 38°52' W 090°09'0 0.1
2018-Feb-10 14:59N 38°52' W 090°09'0 0.2
2018-Feb-10 14:28N 38°52' W 090°09'0 0.1
2018-Feb-10 14:00N 38°52' W 090°09'0 0.8
2018-Feb-10 13:30N 38°52' W 090°09'0 0.0
2018-Feb-10 13:00N 38°52' W 090°09'0 0.0
2018-Feb-10 12:30N 38°52' W 090°09'0 0.4
2018-Feb-10 12:00N 38°52' W 090°08'1 1.3
2018-Feb-10 11:30N 38°51' W 090°08'0 0.0
2018-Feb-10 10:52N 38°51' W 090°08'0 0.0
2018-Feb-10 10:29N 38°51' W 090°08'0 0.0
2018-Feb-10 10:00N 38°51' W 090°08'1 1.3
2018-Feb-10 09:30N 38°51' W 090°07'3 5.3
2018-Feb-10 09:00N 38°48' W 090°07'8 2.3
2018-Feb-10 05:40N 38°42' W 090°11'1 2.6
2018-Feb-10 05:23N 38°41' W 090°11'  
Track history (hours):
 
Tides and Currents Weather Stations Pressure Air Temp Water Temp Dewpoint Dewpoint Depression Visibility Wind Speed Wind Dir Waves Ship Positions

W. T. Toutant

Owner: American Commercial Lines LLC, Jeffersonville, IN. More information available from US FCC via Universal Licensing System and Coast Guard Vessel Documentation Center.

Last reported at 2018-Feb-17 06:38 UTC. Time now 2018-Feb-23 20:17 UTC.
Position N 38°39' W 090°11'.

Length 48 m; draft 3.6 m.

Type: Towing. MMSI: 367057940.

Date/timePositionNaut miles runAvg speedWind from/ knotsBaromVisibWave heightAir tempDewpointWater temp
2018-Feb-17 06:38N 38°39' W 090°11'1 8.1
2018-Feb-17 06:30N 38°40' W 090°11'4 2.1
2018-Feb-17 04:43N 38°44' W 090°10'1 3.2
2018-Feb-17 04:24N 38°44' W 090°09'2 3.1
2018-Feb-17 03:54N 38°46' W 090°08'1 2.8
2018-Feb-17 03:29N 38°47' W 090°08'2 3.8
2018-Feb-17 03:00N 38°48' W 090°07'3 5.6
2018-Feb-17 02:30N 38°51' W 090°07'1 2.3
2018-Feb-17 01:59N 38°52' W 090°08'0 0.0
2018-Feb-17 01:25N 38°52' W 090°08'0 0.0
2018-Feb-17 01:00N 38°52' W 090°08'0 0.0
2018-Feb-17 00:28N 38°52' W 090°08'0 0.0
2018-Feb-16 23:59N 38°52' W 090°08'0 1.0
2018-Feb-16 23:30N 38°52' W 090°09'0 0.2
2018-Feb-16 23:00N 38°52' W 090°09'0 0.2
2018-Feb-16 22:30N 38°52' W 090°09'0 0.0
2018-Feb-16 22:00N 38°52' W 090°09'0 0.3
2018-Feb-16 21:30N 38°52' W 090°09'2 4.2
2018-Feb-16 21:00N 38°53' W 090°12'3 5.3
2018-Feb-16 20:30N 38°55' W 090°14'2 5.0
2018-Feb-16 20:00N 38°55' W 090°17'2 4.9
2018-Feb-16 19:30N 38°56' W 090°20'3 5.4
2018-Feb-16 19:00N 38°58' W 090°23'4 5.2
2018-Feb-16 18:11N 38°58' W 090°29'1 4.9
2018-Feb-16 18:00N 38°58' W 090°30'2 3.9
2018-Feb-16 17:30N 38°58' W 090°32'3 5.1
2018-Feb-16 17:01N 38°60' W 090°34'2 4.8
2018-Feb-16 16:31N 39°02' W 090°35'2 3.8
2018-Feb-16 16:00N 39°04' W 090°35'3 5.0
2018-Feb-16 15:28N 39°07' W 090°36'4 5.0
2018-Feb-16 14:43N 39°10' W 090°37'  
2018-Feb-11 00:01N 39°11' W 090°36'1 3.7
2018-Feb-10 23:52N 39°11' W 090°36'4 3.8
2018-Feb-10 22:46N 39°07' W 090°36'1 3.7
2018-Feb-10 22:30N 39°06' W 090°36'2 3.9
2018-Feb-10 21:54N 39°04' W 090°35'1 3.1
2018-Feb-10 21:30N 39°02' W 090°35'2 3.7
2018-Feb-10 21:00N 39°01' W 090°35'2 3.8
2018-Feb-10 20:30N 38°59' W 090°34'2 3.7
2018-Feb-10 20:00N 38°57' W 090°32'2 3.5
2018-Feb-10 19:30N 38°58' W 090°30'2 4.0
2018-Feb-10 19:00N 38°58' W 090°27'2 4.2
2018-Feb-10 18:30N 38°58' W 090°25'2 4.4
2018-Feb-10 18:00N 38°57' W 090°22'2 4.8
2018-Feb-10 17:29N 38°56' W 090°19'3 5.6
2018-Feb-10 17:00N 38°55' W 090°16'2 4.9
2018-Feb-10 16:30N 38°54' W 090°13'2 4.2
2018-Feb-10 16:00N 38°53' W 090°11'2 3.3
2018-Feb-10 15:30N 38°52' W 090°09'0 0.1
2018-Feb-10 14:59N 38°52' W 090°09'0 0.2
2018-Feb-10 14:28N 38°52' W 090°09'0 0.1
2018-Feb-10 14:00N 38°52' W 090°09'0 0.8
2018-Feb-10 13:30N 38°52' W 090°09'0 0.0
2018-Feb-10 13:00N 38°52' W 090°09'0 0.0
2018-Feb-10 12:30N 38°52' W 090°09'0 0.4
2018-Feb-10 12:00N 38°52' W 090°08'1 1.3
2018-Feb-10 11:30N 38°51' W 090°08'0 0.0
2018-Feb-10 10:52N 38°51' W 090°08'0 0.0
2018-Feb-10 10:29N 38°51' W 090°08'0 0.0
2018-Feb-10 10:00N 38°51' W 090°08'1 1.3
2018-Feb-10 09:30N 38°51' W 090°07'3 5.3
2018-Feb-10 09:00N 38°48' W 090°07'8 2.3
2018-Feb-10 05:40N 38°42' W 090°11'1 2.6
2018-Feb-10 05:23N 38°41' W 090°11'  

Dump ship's entire track history